sensor_id;sensor_type;location;lat;lon;timestamp;pressure;altitude;pressure_sealevel;temperature;humidity
69751;BME280;57335;52.288;6.056;2023-04-07T00:01:04;101397.78;;;7.88;100.00
69751;BME280;57335;52.288;6.056;2023-04-07T00:03:31;101400.56;;;7.86;100.00
69751;BME280;57335;52.288;6.056;2023-04-07T00:05:58;101415.63;;;7.99;100.00
69751;BME280;57335;52.288;6.056;2023-04-07T00:08:24;101422.94;;;8.04;100.00
69751;BME280;57335;52.288;6.056;2023-04-07T00:10:51;101411.06;;;8.01;100.00
69751;BME280;57335;52.288;6.056;2023-04-07T00:13:17;101419.19;;;8.06;100.00
69751;BME280;57335;52.288;6.056;2023-04-07T00:15:44;101396.25;;;7.93;100.00
69751;BME280;57335;52.288;6.056;2023-04-07T00:18:10;101418.97;;;8.08;100.00
69751;BME280;57335;52.288;6.056;2023-04-07T00:20:39;101416.56;;;8.06;100.00
69751;BME280;57335;52.288;6.056;2023-04-07T00:23:06;101395.81;;;7.90;100.00
69751;BME280;57335;52.288;6.056;2023-04-07T00:25:33;101408.09;;;8.04;100.00
69751;BME280;57335;52.288;6.056;2023-04-07T00:27:59;101422.25;;;8.10;100.00
69751;BME280;57335;52.288;6.056;2023-04-07T00:30:26;101406.84;;;8.00;100.00
69751;BME280;57335;52.288;6.056;2023-04-07T00:32:52;101421.44;;;8.09;100.00
69751;BME280;57335;52.288;6.056;2023-04-07T00:35:19;101418.19;;;8.07;100.00
69751;BME280;57335;52.288;6.056;2023-04-07T00:37:46;101412.16;;;8.07;100.00
69751;BME280;57335;52.288;6.056;2023-04-07T00:40:12;101404.84;;;8.02;100.00
69751;BME280;57335;52.288;6.056;2023-04-07T00:42:39;101401.53;;;8.08;100.00
69751;BME280;57335;52.288;6.056;2023-04-07T00:45:06;101407.91;;;8.06;100.00
69751;BME280;57335;52.288;6.056;2023-04-07T00:47:33;101405.66;;;8.03;100.00
69751;BME280;57335;52.288;6.056;2023-04-07T00:49:59;101393.16;;;7.98;100.00
69751;BME280;57335;52.288;6.056;2023-04-07T00:52:26;101393.16;;;7.98;100.00
69751;BME280;57335;52.288;6.056;2023-04-07T00:54:55;101424.34;;;8.14;100.00
69751;BME280;57335;52.288;6.056;2023-04-07T00:57:22;101416.84;;;8.11;100.00
69751;BME280;57335;52.288;6.056;2023-04-07T00:59:51;101409.53;;;8.07;100.00
69751;BME280;57335;52.288;6.056;2023-04-07T01:02:39;101423.34;;;8.15;100.00
69751;BME280;57335;52.288;6.056;2023-04-07T01:07:47;101405.44;;;8.12;100.00
69751;BME280;57335;52.288;6.056;2023-04-07T01:10:21;101418.31;;;8.14;100.00
69751;BME280;57335;52.288;6.056;2023-04-07T01:13:33;101423.63;;;8.21;100.00
69751;BME280;57335;52.288;6.056;2023-04-07T01:15:51;101419.91;;;8.15;100.00
69751;BME280;57335;52.288;6.056;2023-04-07T01:18:22;101420.72;;;8.15;100.00
69751;BME280;57335;52.288;6.056;2023-04-07T01:20:54;101427.59;;;8.16;100.00
69751;BME280;57335;52.288;6.056;2023-04-07T01:28:48;101424.34;;;8.14;100.00
69751;BME280;57335;52.288;6.056;2023-04-07T01:31:19;101424.34;;;8.14;100.00
69751;BME280;57335;52.288;6.056;2023-04-07T01:33:48;101421.91;;;8.13;100.00
69751;BME280;57335;52.288;6.056;2023-04-07T01:36:17;101428.56;;;8.15;100.00
69751;BME280;57335;52.288;6.056;2023-04-07T01:38:44;101437.22;;;8.16;100.00
69751;BME280;57335;52.288;6.056;2023-04-07T01:41:13;101433.78;;;8.15;100.00
69751;BME280;57335;52.288;6.056;2023-04-07T01:43:40;101438.03;;;8.16;100.00
69751;BME280;57335;52.288;6.056;2023-04-07T01:46:10;101422.06;;;8.11;100.00
69751;BME280;57335;52.288;6.056;2023-04-07T01:48:38;101424.66;;;8.11;100.00
69751;BME280;57335;52.288;6.056;2023-04-07T01:51:05;101430.19;;;8.16;100.00
69751;BME280;57335;52.288;6.056;2023-04-07T01:53:33;101429.56;;;8.14;100.00
69751;BME280;57335;52.288;6.056;2023-04-07T01:56:00;101429.56;;;8.14;100.00
69751;BME280;57335;52.288;6.056;2023-04-07T01:58:26;101429.91;;;8.11;100.00
69751;BME280;57335;52.288;6.056;2023-04-07T02:00:53;101424.22;;;8.08;100.00
69751;BME280;57335;52.288;6.056;2023-04-07T02:03:27;101427.00;;;8.06;100.00
69751;BME280;57335;52.288;6.056;2023-04-07T02:06:03;101431.22;;;8.07;100.00
69751;BME280;57335;52.288;6.056;2023-04-07T02:08:32;101422.13;;;8.03;100.00
69751;BME280;57335;52.288;6.056;2023-04-07T02:11:02;101430.25;;;8.08;100.00
69751;BME280;57335;52.288;6.056;2023-04-07T02:13:31;101437.09;;;8.09;100.00
69751;BME280;57335;52.288;6.056;2023-04-07T02:16:00;101434.47;;;8.09;100.00
69751;BME280;57335;52.288;6.056;2023-04-07T02:18:27;101427.81;;;8.07;100.00
69751;BME280;57335;52.288;6.056;2023-04-07T02:20:56;101428.63;;;8.07;100.00
69751;BME280;57335;52.288;6.056;2023-04-07T02:23:23;101436.13;;;8.10;100.00
69751;BME280;57335;52.288;6.056;2023-04-07T02:25:50;101437.09;;;8.09;100.00
69751;BME280;57335;52.288;6.056;2023-04-07T02:28:17;101439.69;;;8.09;100.00
69751;BME280;57335;52.288;6.056;2023-04-07T02:30:43;101436.13;;;8.10;100.00
69751;BME280;57335;52.288;6.056;2023-04-07T02:33:09;101442.31;;;8.09;100.00
69751;BME280;57335;52.288;6.056;2023-04-07T02:35:36;101437.72;;;8.11;100.00
69751;BME280;57335;52.288;6.056;2023-04-07T02:38:02;101434.47;;;8.09;100.00
69751;BME280;57335;52.288;6.056;2023-04-07T02:40:29;101441.97;;;8.12;100.00
69751;BME280;57335;52.288;6.056;2023-04-07T02:42:55;101434.94;;;8.13;100.00
69751;BME280;57335;52.288;6.056;2023-04-07T02:45:22;101431.06;;;8.09;100.00
69751;BME280;57335;52.288;6.056;2023-04-07T02:47:49;101444.22;;;8.15;100.00
69751;BME280;57335;52.288;6.056;2023-04-07T02:50:16;101439.00;;;8.15;100.00
69751;BME280;57335;52.288;6.056;2023-04-07T02:52:42;101436.13;;;8.10;100.00
69751;BME280;57335;52.288;6.056;2023-04-07T02:55:09;101441.97;;;8.12;100.00
69751;BME280;57335;52.288;6.056;2023-04-07T02:57:35;101444.28;;;8.07;100.00
69751;BME280;57335;52.288;6.056;2023-04-07T03:00:02;101443.78;;;8.12;100.00
69751;BME280;57335;52.288;6.056;2023-04-07T03:02:29;101444.75;;;8.11;100.00
69751;BME280;57335;52.288;6.056;2023-04-07T03:04:56;101449.63;;;8.14;100.00
69751;BME280;57335;52.288;6.056;2023-04-07T03:07:22;101448.81;;;8.13;100.00
69751;BME280;57335;52.288;6.056;2023-04-07T03:09:49;101449.16;;;8.10;100.00
69751;BME280;57335;52.288;6.056;2023-04-07T03:12:15;101450.78;;;8.11;100.00
69751;BME280;57335;52.288;6.056;2023-04-07T03:14:42;101450.78;;;8.11;100.00
69751;BME280;57335;52.288;6.056;2023-04-07T03:17:08;101445.94;;;8.08;100.00
69751;BME280;57335;52.288;6.056;2023-04-07T03:19:35;101450.31;;;8.08;100.00
69751;BME280;57335;52.288;6.056;2023-04-07T03:22:02;101455.84;;;8.13;100.00
69751;BME280;57335;52.288;6.056;2023-04-07T03:24:28;101459.25;;;8.13;100.00
69751;BME280;57335;52.288;6.056;2023-04-07T03:26:54;101461.22;;;8.11;100.00
69751;BME280;57335;52.288;6.056;2023-04-07T03:29:21;101459.25;;;8.13;100.00
69751;BME280;57335;52.288;6.056;2023-04-07T03:31:48;101457.97;;;8.09;100.00
69751;BME280;57335;52.288;6.056;2023-04-07T03:34:15;101456.84;;;8.12;100.00
69751;BME280;57335;52.288;6.056;2023-04-07T03:36:41;101457.00;;;8.10;100.00
69751;BME280;57335;52.288;6.056;2023-04-07T03:39:07;101453.13;;;8.06;100.00
69751;BME280;57335;52.288;6.056;2023-04-07T03:41:34;101457.97;;;8.09;100.00
69751;BME280;57335;52.288;6.056;2023-04-07T03:44:00;101452.28;;;8.06;100.00
69751;BME280;57335;52.288;6.056;2023-04-07T03:46:27;101450.50;;;8.06;100.00
69751;BME280;57335;52.288;6.056;2023-04-07T03:48:54;101455.72;;;8.06;100.00
69751;BME280;57335;52.288;6.056;2023-04-07T03:51:20;101457.16;;;8.09;100.00
69751;BME280;57335;52.288;6.056;2023-04-07T03:53:47;101457.16;;;8.09;100.00
69751;BME280;57335;52.288;6.056;2023-04-07T03:56:14;101459.16;;;8.07;100.00
69751;BME280;57335;52.288;6.056;2023-04-07T03:58:40;101461.75;;;8.07;100.00
69751;BME280;57335;52.288;6.056;2023-04-07T04:01:07;101461.91;;;8.05;100.00
69751;BME280;57335;52.288;6.056;2023-04-07T04:03:34;101459.31;;;8.05;100.00
69751;BME280;57335;52.288;6.056;2023-04-07T04:06:01;101465.97;;;8.08;100.00
69751;BME280;57335;52.288;6.056;2023-04-07T04:08:28;101468.78;;;8.06;100.00
69751;BME280;57335;52.288;6.056;2023-04-07T04:10:54;101468.59;;;8.08;100.00
69751;BME280;57335;52.288;6.056;2023-04-07T04:13:21;101473.63;;;8.09;100.00
69751;BME280;57335;52.288;6.056;2023-04-07T04:15:47;101466.81;;;8.08;100.00
69751;BME280;57335;52.288;6.056;2023-04-07T04:18:14;101470.22;;;8.09;100.00
69751;BME280;57335;52.288;6.056;2023-04-07T04:20:42;101475.28;;;8.10;100.00
69751;BME280;57335;52.288;6.056;2023-04-07T04:23:08;101475.13;;;8.12;100.00
69751;BME280;57335;52.288;6.056;2023-04-07T04:25:35;101483.75;;;8.12;100.00
69751;BME280;57335;52.288;6.056;2023-04-07T04:28:02;101476.56;;;8.14;100.00
69751;BME280;57335;52.288;6.056;2023-04-07T04:30:28;101478.16;;;8.15;100.00
69751;BME280;57335;52.288;6.056;2023-04-07T04:32:54;101484.84;;;8.18;100.00
69751;BME280;57335;52.288;6.056;2023-04-07T04:35:21;101489.88;;;8.19;100.00
69751;BME280;57335;52.288;6.056;2023-04-07T04:37:48;101488.28;;;8.18;100.00
69751;BME280;57335;52.288;6.056;2023-04-07T04:40:14;101488.28;;;8.18;100.00
69751;BME280;57335;52.288;6.056;2023-04-07T04:42:41;101484.84;;;8.18;100.00
69751;BME280;57335;52.288;6.056;2023-04-07T04:45:08;101490.72;;;8.20;100.00
69751;BME280;57335;52.288;6.056;2023-04-07T04:47:35;101493.50;;;8.18;100.00
69751;BME280;57335;52.288;6.056;2023-04-07T04:50:01;101495.31;;;8.18;100.00
69751;BME280;57335;52.288;6.056;2023-04-07T04:52:28;101495.09;;;8.19;100.00
69751;BME280;57335;52.288;6.056;2023-04-07T04:54:54;101502.13;;;8.19;100.00
69751;BME280;57335;52.288;6.056;2023-04-07T04:57:21;101495.31;;;8.18;100.00
69751;BME280;57335;52.288;6.056;2023-04-07T04:59:47;101504.09;;;8.17;100.00
69751;BME280;57335;52.288;6.056;2023-04-07T05:02:14;101511.94;;;8.17;100.00
69751;BME280;57335;52.288;6.056;2023-04-07T05:04:41;101510.50;;;8.14;100.00
69751;BME280;57335;52.288;6.056;2023-04-07T05:07:08;101512.47;;;8.12;100.00
69751;BME280;57335;52.288;6.056;2023-04-07T05:09:34;101510.66;;;8.13;100.00
69751;BME280;57335;52.288;6.056;2023-04-07T05:12:01;101501.72;;;8.07;100.00
69751;BME280;57335;52.288;6.056;2023-04-07T05:14:27;101516.03;;;8.11;100.00
69751;BME280;57335;52.288;6.056;2023-04-07T05:16:54;101515.06;;;8.12;100.00
69751;BME280;57335;52.288;6.056;2023-04-07T05:19:21;101514.78;;;8.07;100.00
69751;BME280;57335;52.288;6.056;2023-04-07T05:21:47;101515.06;;;8.12;100.00
69751;BME280;57335;52.288;6.056;2023-04-07T05:24:14;101520.31;;;8.12;100.00
69751;BME280;57335;52.288;6.056;2023-04-07T05:26:41;101510.19;;;8.09;100.00
69751;BME280;57335;52.288;6.056;2023-04-07T05:29:08;101522.75;;;8.14;100.00
69751;BME280;57335;52.288;6.056;2023-04-07T05:31:34;101510.81;;;8.11;100.00
69751;BME280;57335;52.288;6.056;2023-04-07T05:34:01;101521.09;;;8.13;100.00
69751;BME280;57335;52.288;6.056;2023-04-07T05:36:28;101526.00;;;8.16;100.00
69751;BME280;57335;52.288;6.056;2023-04-07T05:38:54;101523.56;;;8.14;100.00
69751;BME280;57335;52.288;6.056;2023-04-07T05:41:21;101525.78;;;8.17;100.00
69751;BME280;57335;52.288;6.056;2023-04-07T05:43:50;101524.81;;;8.18;100.00
69751;BME280;57335;52.288;6.056;2023-04-07T05:46:17;101527.28;;;8.20;100.00
69751;BME280;57335;52.288;6.056;2023-04-07T05:48:43;101531.31;;;8.23;100.00
69751;BME280;57335;52.288;6.056;2023-04-07T06:02:08;101532.25;;;8.30;100.00
69751;BME280;57335;52.288;6.056;2023-04-07T06:04:34;101537.13;;;8.33;100.00
69751;BME280;57335;52.288;6.056;2023-04-07T06:07:01;101536.44;;;8.39;100.00
69751;BME280;57335;52.288;6.056;2023-04-07T06:09:28;101541.34;;;8.42;100.00
69751;BME280;57335;52.288;6.056;2023-04-07T06:11:55;101544.06;;;8.49;100.00
69751;BME280;57335;52.288;6.056;2023-04-07T06:14:21;101543.53;;;8.53;100.00
69751;BME280;57335;52.288;6.056;2023-04-07T06:16:48;101539.59;;;8.57;100.00
69751;BME280;57335;52.288;6.056;2023-04-07T06:19:15;101545.44;;;8.59;100.00
69751;BME280;57335;52.288;6.056;2023-04-07T06:21:41;101540.44;;;8.58;100.00
69751;BME280;57335;52.288;6.056;2023-04-07T06:24:08;101540.69;;;8.63;100.00
69751;BME280;57335;52.288;6.056;2023-04-07T06:26:34;101551.31;;;8.62;100.00
69751;BME280;57335;52.288;6.056;2023-04-07T06:29:00;101552.94;;;8.63;100.00
69751;BME280;57335;52.288;6.056;2023-04-07T06:31:27;101552.31;;;8.61;100.00
69751;BME280;57335;52.288;6.056;2023-04-07T06:33:53;101557.81;;;8.66;100.00
69751;BME280;57335;52.288;6.056;2023-04-07T06:36:20;101552.59;;;8.66;100.00
69751;BME280;57335;52.288;6.056;2023-04-07T06:38:46;101549.34;;;8.64;100.00
69751;BME280;57335;52.288;6.056;2023-04-07T06:41:13;101545.91;;;8.63;100.00
69751;BME280;57335;52.288;6.056;2023-04-07T06:43:39;101559.09;;;8.70;100.00
69751;BME280;57335;52.288;6.056;2023-04-07T06:46:05;101550.44;;;8.69;100.00
69751;BME280;57335;52.288;6.056;2023-04-07T06:48:32;101562.94;;;8.82;100.00
69751;BME280;57335;52.288;6.056;2023-04-07T06:50:58;101565.00;;;8.87;100.00
69751;BME280;57335;52.288;6.056;2023-04-07T06:53:25;101577.28;;;8.86;100.00
69751;BME280;57335;52.288;6.056;2023-04-07T06:56:01;101572.69;;;8.88;100.00
69751;BME280;57335;52.288;6.056;2023-04-07T06:58:28;101577.91;;;8.88;100.00
69751;BME280;57335;52.288;6.056;2023-04-07T07:00:54;101575.94;;;8.90;100.00
69751;BME280;57335;52.288;6.056;2023-04-07T07:03:21;101569.53;;;8.93;100.00
69751;BME280;57335;52.288;6.056;2023-04-07T07:05:47;101593.28;;;9.06;100.00
69751;BME280;57335;52.288;6.056;2023-04-07T07:08:15;101578.09;;;9.02;100.00
69751;BME280;57335;52.288;6.056;2023-04-07T07:10:42;101587.13;;;9.14;100.00
69751;BME280;57335;52.288;6.056;2023-04-07T07:13:08;101581.91;;;9.14;100.00
69751;BME280;57335;52.288;6.056;2023-04-07T07:15:34;101573.38;;;9.20;100.00
69751;BME280;57335;52.288;6.056;2023-04-07T07:18:01;101588.28;;;9.34;100.00
69751;BME280;57335;52.288;6.056;2023-04-07T07:20:27;101590.34;;;9.39;100.00
69751;BME280;57335;52.288;6.056;2023-04-07T07:22:54;101594.69;;;9.47;100.00
69751;BME280;57335;52.288;6.056;2023-04-07T07:25:20;101591.69;;;9.50;100.00
69751;BME280;57335;52.288;6.056;2023-04-07T07:27:46;101588.25;;;9.49;100.00
69751;BME280;57335;52.288;6.056;2023-04-07T07:30:13;101593.97;;;9.53;100.00
69751;BME280;57335;52.288;6.056;2023-04-07T07:32:39;101606.25;;;9.52;100.00
69751;BME280;57335;52.288;6.056;2023-04-07T07:35:06;101599.75;;;9.48;100.00
69751;BME280;57335;52.288;6.056;2023-04-07T07:37:32;101603.00;;;9.50;100.00
69751;BME280;57335;52.288;6.056;2023-04-07T07:39:59;101615.06;;;9.51;100.00
69751;BME280;57335;52.288;6.056;2023-04-07T07:42:39;101617.59;;;9.45;100.00
69751;BME280;57335;52.288;6.056;2023-04-07T07:45:05;101613.53;;;9.42;100.00
69751;BME280;57335;52.288;6.056;2023-04-07T07:47:32;101616.59;;;9.46;100.00
69751;BME280;57335;52.288;6.056;2023-04-07T07:49:58;101627.88;;;9.46;100.00
69751;BME280;57335;52.288;6.056;2023-04-07T07:52:25;101621.19;;;9.44;100.00
69751;BME280;57335;52.288;6.056;2023-04-07T07:54:51;101615.78;;;9.45;100.00
69751;BME280;57335;52.288;6.056;2023-04-07T07:57:18;101619.75;;;9.41;100.00
69751;BME280;57335;52.288;6.056;2023-04-07T07:59:44;101625.97;;;9.40;100.00
69751;BME280;57335;52.288;6.056;2023-04-07T08:02:10;101626.16;;;9.38;100.00
69751;BME280;57335;52.288;6.056;2023-04-07T08:04:37;101637.59;;;9.37;100.00
69751;BME280;57335;52.288;6.056;2023-04-07T08:07:03;101637.59;;;9.37;100.00
69751;BME280;57335;52.288;6.056;2023-04-07T08:09:30;101650.34;;;9.41;100.00
69751;BME280;57335;52.288;6.056;2023-04-07T08:11:56;101648.53;;;9.41;100.00
69751;BME280;57335;52.288;6.056;2023-04-07T08:14:22;101644.47;;;9.38;100.00
69751;BME280;57335;52.288;6.056;2023-04-07T08:16:49;101646.38;;;9.45;100.00
69751;BME280;57335;52.288;6.056;2023-04-07T08:19:15;101641.66;;;9.40;100.00
69751;BME280;57335;52.288;6.056;2023-04-07T08:21:42;101640.75;;;9.48;100.00
69751;BME280;57335;52.288;6.056;2023-04-07T08:24:08;101655.88;;;9.61;100.00
69751;BME280;57335;52.288;6.056;2023-04-07T08:26:35;101649.16;;;9.58;100.00
69751;BME280;57335;52.288;6.056;2023-04-07T08:29:02;101649.00;;;9.59;100.00
69751;BME280;57335;52.288;6.056;2023-04-07T08:31:28;101645.38;;;9.46;100.00
69751;BME280;57335;52.288;6.056;2023-04-07T08:33:55;101670.75;;;9.60;100.00
69751;BME280;57335;52.288;6.056;2023-04-07T08:36:21;101661.34;;;9.51;100.00
69751;BME280;57335;52.288;6.056;2023-04-07T08:38:48;101654.13;;;9.53;100.00
69751;BME280;57335;52.288;6.056;2023-04-07T08:41:19;101668.50;;;9.57;100.00
69751;BME280;57335;52.288;6.056;2023-04-07T08:43:47;101661.63;;;9.56;100.00
69751;BME280;57335;52.288;6.056;2023-04-07T08:46:16;101673.66;;;9.65;100.00
69751;BME280;57335;52.288;6.056;2023-04-07T08:48:49;101671.03;;;9.65;100.00
69751;BME280;57335;52.288;6.056;2023-04-07T08:51:26;101676.19;;;9.73;100.00
69751;BME280;57335;52.288;6.056;2023-04-07T08:53:53;101681.78;;;9.85;100.00
69751;BME280;57335;52.288;6.056;2023-04-07T08:56:19;101671.47;;;9.84;100.00
69751;BME280;57335;52.288;6.056;2023-04-07T08:58:47;101682.41;;;10.02;100.00
69751;BME280;57335;52.288;6.056;2023-04-07T09:01:14;101677.91;;;10.11;100.00
69751;BME280;57335;52.288;6.056;2023-04-07T09:03:43;101688.53;;;10.24;100.00
69751;BME280;57335;52.288;6.056;2023-04-07T09:06:10;101675.63;;;10.23;100.00
69751;BME280;57335;52.288;6.056;2023-04-07T09:08:36;101680.78;;;10.31;100.00
69751;BME280;57335;52.288;6.056;2023-04-07T09:11:03;101684.50;;;10.36;100.00
69751;BME280;57335;52.288;6.056;2023-04-07T09:13:29;101687.47;;;10.33;100.00
69751;BME280;57335;52.288;6.056;2023-04-07T09:15:57;101686.28;;;10.36;100.00
69751;BME280;57335;52.288;6.056;2023-04-07T09:18:27;101682.41;;;10.32;100.00
69751;BME280;57335;52.288;6.056;2023-04-07T09:21:03;101697.66;;;10.43;100.00
69751;BME280;57335;52.288;6.056;2023-04-07T09:23:34;101693.31;;;10.50;100.00
69751;BME280;57335;52.288;6.056;2023-04-07T09:28:44;101702.47;;;10.76;100.00
69751;BME280;57335;52.288;6.056;2023-04-07T09:31:11;101691.66;;;10.86;100.00
69751;BME280;57335;52.288;6.056;2023-04-07T09:33:37;101694.34;;;10.92;100.00
69751;BME280;57335;52.288;6.056;2023-04-07T09:36:04;101687.00;;;11.03;100.00
69751;BME280;57335;52.288;6.056;2023-04-07T09:38:33;101702.91;;;11.23;100.00
69751;BME280;57335;52.288;6.056;2023-04-07T09:41:07;101695.47;;;11.26;100.00
69751;BME280;57335;52.288;6.056;2023-04-07T09:43:39;101692.47;;;11.29;100.00
69751;BME280;57335;52.288;6.056;2023-04-07T09:46:13;101710.53;;;11.39;100.00
69751;BME280;57335;52.288;6.056;2023-04-07T09:48:41;101697.72;;;11.29;100.00
69751;BME280;57335;52.288;6.056;2023-04-07T09:51:10;101696.84;;;11.22;100.00
69751;BME280;57335;52.288;6.056;2023-04-07T09:56:11;101702.38;;;11.34;100.00
69751;BME280;57335;52.288;6.056;2023-04-07T09:58:38;101706.97;;;11.25;100.00
69751;BME280;57335;52.288;6.056;2023-04-07T10:01:07;101713.50;;;11.36;100.00
69751;BME280;57335;52.288;6.056;2023-04-07T10:03:34;101701.25;;;11.43;100.00
69751;BME280;57335;52.288;6.056;2023-04-07T10:06:02;101720.06;;;11.47;100.00
69751;BME280;57335;52.288;6.056;2023-04-07T10:08:33;101711.19;;;11.48;100.00
69751;BME280;57335;52.288;6.056;2023-04-07T10:11:01;101722.97;;;11.58;100.00
69751;BME280;57335;52.288;6.056;2023-04-07T10:13:33;101713.66;;;11.56;100.00
69751;BME280;57335;52.288;6.056;2023-04-07T10:16:03;101712.13;;;11.68;100.00
69751;BME280;57335;52.288;6.056;2023-04-07T10:18:33;101726.13;;;11.75;100.00
69751;BME280;57335;52.288;6.056;2023-04-07T10:21:01;101717.38;;;11.68;100.00
69751;BME280;57335;52.288;6.056;2023-04-07T10:23:36;101724.28;;;11.69;100.00
69751;BME280;57335;52.288;6.056;2023-04-07T10:26:05;101714.09;;;11.60;100.00
69751;BME280;57335;52.288;6.056;2023-04-07T10:28:37;101726.28;;;11.67;100.00
69751;BME280;57335;52.288;6.056;2023-04-07T10:31:04;101736.19;;;11.72;100.00
69751;BME280;57335;52.288;6.056;2023-04-07T10:33:51;101734.19;;;11.74;100.00
69751;BME280;57335;52.288;6.056;2023-04-07T10:36:21;101731.84;;;11.57;100.00
69751;BME280;57335;52.288;6.056;2023-04-07T10:41:38;101745.41;;;11.33;100.00
69751;BME280;57335;52.288;6.056;2023-04-07T10:44:06;101742.91;;;11.25;100.00
69751;BME280;57335;52.288;6.056;2023-04-07T10:49:26;101730.41;;;11.27;100.00
69751;BME280;57335;52.288;6.056;2023-04-07T10:54:38;101739.53;;;11.31;100.00
69751;BME280;57335;52.288;6.056;2023-04-07T11:05:20;101750.38;;;11.28;100.00
69751;BME280;57335;52.288;6.056;2023-04-07T11:07:49;101740.31;;;11.31;100.00
69751;BME280;57335;52.288;6.056;2023-04-07T11:10:16;101757.44;;;11.49;100.00
69751;BME280;57335;52.288;6.056;2023-04-07T11:12:42;101766.03;;;11.64;100.00
69751;BME280;57335;52.288;6.056;2023-04-07T11:15:16;101754.75;;;11.70;100.00
69751;BME280;57335;52.288;6.056;2023-04-07T11:17:43;101758.63;;;11.74;100.00
69751;BME280;57335;52.288;6.056;2023-04-07T11:20:09;101765.88;;;11.72;100.00
69751;BME280;57335;52.288;6.056;2023-04-07T11:22:36;101764.03;;;11.66;100.00
69751;BME280;57335;52.288;6.056;2023-04-07T11:25:02;101777.59;;;11.70;100.00
69751;BME280;57335;52.288;6.056;2023-04-07T11:27:29;101771.53;;;11.69;100.00
69751;BME280;57335;52.288;6.056;2023-04-07T11:29:55;101776.22;;;11.74;100.00
69751;BME280;57335;52.288;6.056;2023-04-07T11:32:22;101776.03;;;11.75;100.00
69751;BME280;57335;52.288;6.056;2023-04-07T11:34:51;101775.84;;;11.77;100.00
69751;BME280;57335;52.288;6.056;2023-04-07T11:37:21;101778.25;;;11.78;100.00
69751;BME280;57335;52.288;6.056;2023-04-07T11:39:57;101774.38;;;11.74;100.00
69751;BME280;57335;52.288;6.056;2023-04-07T11:42:33;101778.03;;;11.73;100.00
69751;BME280;57335;52.288;6.056;2023-04-07T11:45:00;101783.25;;;11.67;100.00
69751;BME280;57335;52.288;6.056;2023-04-07T11:47:36;101793.34;;;11.70;100.00
69751;BME280;57335;52.288;6.056;2023-04-07T11:50:04;101792.38;;;11.71;100.00
69751;BME280;57335;52.288;6.056;2023-04-07T11:52:48;101790.53;;;11.71;100.00
69751;BME280;57335;52.288;6.056;2023-04-07T11:55:22;101792.53;;;11.69;100.00
69751;BME280;57335;52.288;6.056;2023-04-07T11:57:49;101798.03;;;11.74;100.00
69751;BME280;57335;52.288;6.056;2023-04-07T12:00:15;101801.03;;;11.71;100.00
69751;BME280;57335;52.288;6.056;2023-04-07T12:02:42;101798.16;;;11.66;100.00
69751;BME280;57335;52.288;6.056;2023-04-07T12:05:08;101789.44;;;11.59;100.00
69751;BME280;57335;52.288;6.056;2023-04-07T12:07:36;101806.97;;;11.58;100.00
69751;BME280;57335;52.288;6.056;2023-04-07T12:10:22;101805.88;;;11.46;100.00
69751;BME280;57335;52.288;6.056;2023-04-07T12:12:49;101816.13;;;11.41;100.00
69751;BME280;57335;52.288;6.056;2023-04-07T12:15:15;101817.41;;;11.30;100.00
69751;BME280;57335;52.288;6.056;2023-04-07T12:17:46;101809.44;;;11.17;100.00
69751;BME280;57335;52.288;6.056;2023-04-07T12:20:14;101817.84;;;11.12;100.00
69751;BME280;57335;52.288;6.056;2023-04-07T12:22:40;101810.28;;;11.03;100.00
69751;BME280;57335;52.288;6.056;2023-04-07T12:25:07;101813.25;;;11.00;100.00
69751;BME280;57335;52.288;6.056;2023-04-07T12:27:34;101824.38;;;11.02;100.00
69751;BME280;57335;52.288;6.056;2023-04-07T12:30:09;101818.91;;;10.96;100.00
69751;BME280;57335;52.288;6.056;2023-04-07T12:32:35;101822.31;;;10.97;100.00
69751;BME280;57335;52.288;6.056;2023-04-07T12:35:02;101833.34;;;10.92;100.00
69751;BME280;57335;52.288;6.056;2023-04-07T12:37:28;101832.09;;;10.88;100.00
69751;BME280;57335;52.288;6.056;2023-04-07T12:39:54;101826.03;;;10.88;100.00
69751;BME280;57335;52.288;6.056;2023-04-07T12:42:21;101828.84;;;10.86;100.00
69751;BME280;57335;52.288;6.056;2023-04-07T12:44:47;101840.59;;;10.90;100.00
69751;BME280;57335;52.288;6.056;2023-04-07T12:47:13;101826.50;;;10.91;100.00
69751;BME280;57335;52.288;6.056;2023-04-07T12:49:40;101842.75;;;11.02;100.00
69751;BME280;57335;52.288;6.056;2023-04-07T12:52:06;101833.97;;;11.09;100.00
69751;BME280;57335;52.288;6.056;2023-04-07T12:54:33;101834.84;;;11.16;100.00
69751;BME280;57335;52.288;6.056;2023-04-07T12:56:59;101825.34;;;11.15;100.00
69751;BME280;57335;52.288;6.056;2023-04-07T12:59:25;101843.41;;;11.25;100.00
69751;BME280;57335;52.288;6.056;2023-04-07T13:01:52;101846.84;;;11.26;100.00
69751;BME280;57335;52.288;6.056;2023-04-07T13:04:18;101843.78;;;11.22;100.00
69751;BME280;57335;52.288;6.056;2023-04-07T13:06:45;101848.50;;;11.12;100.00
69751;BME280;57335;52.288;6.056;2023-04-07T13:09:11;101855.50;;;11.05;100.00
69751;BME280;57335;52.288;6.056;2023-04-07T13:11:37;101853.25;;;11.02;100.00
69751;BME280;57335;52.288;6.056;2023-04-07T13:14:04;101854.63;;;10.68;100.00
69751;BME280;57335;52.288;6.056;2023-04-07T13:16:30;101855.34;;;10.62;100.00
69751;BME280;57335;52.288;6.056;2023-04-07T13:18:56;101843.28;;;10.23;100.00
69751;BME280;57335;52.288;6.056;2023-04-07T13:21:23;101856.25;;;10.01;100.00
69751;BME280;57335;52.288;6.056;2023-04-07T13:23:52;101857.84;;;10.02;100.00
69751;BME280;57335;52.288;6.056;2023-04-07T13:26:18;101861.97;;;9.82;100.00
69751;BME280;57335;52.288;6.056;2023-04-07T13:28:45;101857.44;;;9.52;100.00
69751;BME280;57335;52.288;6.056;2023-04-07T13:31:11;101864.28;;;9.53;100.00